METAR Data
IDs: Format: Raw Decoded Include TAF

Data at: 1455 UTC 10 Aug 2022

ETNT 101420Z 05005KT 9999 FEW330 26/12 Q1026 BLACKBLU+
ETNT 101320Z 06006KT 9999 FEW330 26/13 Q1026 BLACKBLU+
ETNT 101220Z 09005KT 9999 FEW330 25/13 Q1027 BLACKBLU+
ETNT 101120Z 08005KT 9999 FEW330 25/14 Q1027 BLACKBLU+
ETNT 101020Z 09005KT 9999 FEW330 23/14 Q1028 BLACKBLU+
ETNT 100920Z 06005KT 9999 FEW330 22/14 Q1028 BLACKBLU+
ETNT 100820Z 05005KT 9999 FEW330 21/15 Q1028 BLACKBLU+
ETNT 100720Z 05004KT 9999 FEW330 19/16 Q1028 BLACKBLU+
ETNT 100620Z 04004KT 9999 SCT330 17/16 Q1028 BLACKBLU+
ETNT 100520Z 03003KT 9999 SCT330 14/13 Q1025 BLACKBLU+
ETNT 100420Z 05003KT 8000 MIFG SCT330 13/13 Q1028 BLACKBLU+
No TAF found for ETNT

ETMN 101420Z 04008KT 9999 FEW310 25/12 Q1026 BLU+BLU+
ETMN 101320Z 06006KT 9999 FEW310 25/12 Q1027 BLU+BLU+
ETMN 101220Z 06006KT 9999 FEW040 24/12 Q1027 BLU+BLU+
ETMN 101120Z 04004KT 9999 FEW040 24/12 Q1028 BLU+BLU+
ETMN 101020Z 03005KT 9999 FEW040 23/13 Q1028 BLU+BLU+
ETMN 100920Z 05007KT 9999 SCT340 22/13 Q1028 BLU+BLU+
ETMN 100820Z 08005KT 9999 SCT350 21/13 Q1028 BLU+BLU+
ETMN 100720Z 08006KT 9999 BKN350 19/13 Q1028 BLU+BLU+
ETMN 100620Z 07006KT 9999 BKN300 17/14 Q1029 BLU+BLU+
ETMN 100520Z 07004KT 9999 VCFG BKN260 15/14 Q1028 BLU+BLU+
ETMN 100420Z 06003KT 9999 BCFG MIFG SCT300 14/13 Q1028 BLU+BLU+ TEMPO RED
ETMN 100320Z 07004KT 9999 MIFG SCT340 14/14 Q1028 BLU+

TAF ETMN 101313Z 1014/1023 03007KT 9999 NSW FEW040 SCT330

EDDW 101450Z AUTO 06006KT 030V140 CAVOK 28/11 Q1025 NOSIG
EDDW 101420Z AUTO 03008KT 280V060 CAVOK 28/11 Q1025 NOSIG
EDDW 101350Z AUTO VRB05KT CAVOK 27/10 Q1026 TEMPO 07005KT
EDDW 101320Z AUTO 05008KT 350V090 CAVOK 27/10 Q1026 NOSIG
EDDW 101250Z AUTO 07005KT 040V150 CAVOK 28/12 Q1026 NOSIG
EDDW 101220Z AUTO VRB05KT CAVOK 27/11 Q1027 TEMPO 06005KT
EDDW 101150Z AUTO 05006KT 320V120 CAVOK 27/11 Q1027 NOSIG
EDDW 101120Z AUTO 07006KT 020V140 CAVOK 26/12 Q1027 NOSIG
EDDW 101050Z AUTO VRB04KT CAVOK 26/12 Q1027 TEMPO 08005KT
EDDW 101020Z AUTO 08006KT 030V120 CAVOK 25/12 Q1027 NOSIG
EDDW 100950Z AUTO 07006KT 360V120 CAVOK 24/12 Q1028 NOSIG
EDDW 100920Z AUTO 07006KT 020V110 CAVOK 24/13 Q1028 NOSIG
EDDW 100850Z AUTO 06005KT 360V150 CAVOK 23/13 Q1028 NOSIG
EDDW 100820Z AUTO 05004KT 350V110 CAVOK 22/13 Q1028 NOSIG
EDDW 100750Z AUTO 08003KT 030V140 CAVOK 21/13 Q1028 NOSIG
EDDW 100720Z AUTO 10004KT 060V130 CAVOK 20/13 Q1028 NOSIG
EDDW 100650Z AUTO 07005KT CAVOK 19/13 Q1028 NOSIG
EDDW 100620Z AUTO 07005KT CAVOK 18/13 Q1028 NOSIG
EDDW 100550Z AUTO 06005KT CAVOK 17/13 Q1028 NOSIG
EDDW 100520Z AUTO 06005KT CAVOK 16/13 Q1028 NOSIG
EDDW 100450Z AUTO 05003KT CAVOK 14/12 Q1028 NOSIG
EDDW 100420Z AUTO 04003KT CAVOK 14/12 Q1028 NOSIG
EDDW 100350Z AUTO 04003KT CAVOK 14/12 Q1028 NOSIG
EDDW 100320Z AUTO 05002KT CAVOK 14/12 Q1028

TAF EDDW 101100Z 1012/1112 05005KT CAVOK
  PROB30
  TEMPO 1015/1019 04010KT
  BECMG 1019/1021 VRB02KT
  BECMG 1106/1108 07005KT


EDDL 101450Z AUTO 03011KT 360V060 CAVOK 31/09 Q1023 NOSIG
EDDL 101420Z AUTO 03009KT 340V080 CAVOK 30/09 Q1023 NOSIG
EDDL 101350Z AUTO 04011KT 360V080 CAVOK 31/09 Q1023
EDDL 101320Z AUTO 05010KT 350V140 CAVOK 30/10 Q1023 NOSIG
EDDL 101250Z AUTO 03009KT 340V100 CAVOK 30/10 Q1024 NOSIG
EDDL 101220Z AUTO 05010KT 020V100 CAVOK 30/10 Q1024 NOSIG
EDDL 101150Z AUTO VRB07KT CAVOK 30/10 Q1024 BECMG 03008KT
EDDL 101120Z AUTO 04009KT 010V070 CAVOK 29/10 Q1024 NOSIG
EDDL 101050Z AUTO 06007KT 360V150 CAVOK 29/10 Q1025
EDDL 101020Z AUTO 06010KT 020V110 CAVOK 28/10 Q1025 NOSIG
EDDL 100950Z AUTO 03010KT 360V070 CAVOK 28/09 Q1025 NOSIG
EDDL 100920Z AUTO 05006KT 030V090 CAVOK 27/12 Q1025 NOSIG
EDDL 100850Z AUTO 03004KT 340V090 CAVOK 26/11 Q1026 BECMG 04009KT
EDDL 100820Z AUTO 04006KT 360V090 CAVOK 25/11 Q1026 NOSIG
EDDL 100750Z AUTO 03005KT 350V070 CAVOK 24/11 Q1026 NOSIG
EDDL 100720Z AUTO 04006KT 010V070 CAVOK 23/12 Q1026 NOSIG
EDDL 100650Z AUTO 03004KT 360V070 CAVOK 22/12 Q1026 BECMG 04009KT
EDDL 100620Z AUTO 03003KT 350V050 CAVOK 20/12 Q1026 NOSIG
EDDL 100550Z AUTO 01003KT 340V050 CAVOK 18/13 Q1026 NOSIG
EDDL 100520Z AUTO 36003KT CAVOK 17/12 Q1025 NOSIG
EDDL 100450Z AUTO 01003KT CAVOK 17/12 Q1026 NOSIG
EDDL 100420Z AUTO 02003KT 350V050 CAVOK 16/12 Q1025 NOSIG
EDDL 100350Z AUTO 02004KT CAVOK 17/12 Q1025 NOSIG
EDDL 100320Z AUTO 01004KT CAVOK 17/12 Q1025 NOSIG

TAF EDDL 101100Z 1012/1118 04010KT CAVOK
  BECMG 1019/1022 05004KT
  BECMG 1108/1111 05009KT


EDDS 101450Z AUTO 08011KT 050V110 CAVOK 28/07 Q1022 NOSIG
EDDS 101420Z AUTO 09011KT 060V120 CAVOK 28/08 Q1022 NOSIG
EDDS 101350Z AUTO 10009KT 050V190 CAVOK 28/07 Q1022 NOSIG
EDDS 101320Z AUTO 09012KT 060V150 CAVOK 28/07 Q1023 NOSIG
EDDS 101250Z AUTO 09011KT 050V130 CAVOK 27/07 Q1023 NOSIG
EDDS 101220Z AUTO 10011KT 060V160 CAVOK 27/07 Q1023 NOSIG
EDDS 101150Z AUTO 07012G22KT 040V100 CAVOK 26/07 Q1023 NOSIG
EDDS 101120Z AUTO 07013KT 040V100 CAVOK 27/07 Q1023 NOSIG
EDDS 101050Z AUTO 09011KT 050V140 CAVOK 27/08 Q1023 NOSIG
EDDS 101020Z AUTO 09011KT 040V150 CAVOK 26/08 Q1024 NOSIG
EDDS 100950Z AUTO 09012KT 060V130 CAVOK 26/08 Q1024 NOSIG
EDDS 100920Z AUTO 08010KT 050V140 CAVOK 25/09 Q1024 NOSIG
EDDS 100850Z AUTO 10011KT 060V140 CAVOK 24/09 Q1024 NOSIG
EDDS 100820Z AUTO 07013KT CAVOK 24/10 Q1024 NOSIG
EDDS 100750Z AUTO 08010KT 050V120 CAVOK 22/10 Q1024 NOSIG
EDDS 100720Z AUTO 08008KT CAVOK 22/09 Q1024 NOSIG
EDDS 100650Z AUTO 08007KT CAVOK 21/09 Q1024 NOSIG
EDDS 100620Z AUTO 07007KT 040V100 CAVOK 20/10 Q1024 NOSIG
EDDS 100550Z AUTO 07003KT 040V150 CAVOK 19/10 Q1024 NOSIG
EDDS 100520Z AUTO 11002KT CAVOK 18/10 Q1024 NOSIG
EDDS 100450Z AUTO 04002KT CAVOK 17/09 Q1024 NOSIG
EDDS 100420Z AUTO VRB01KT CAVOK 15/09 Q1024
EDDS 100350Z AUTO VRB01KT CAVOK 15/09 Q1024
EDDS 100320Z AUTO 09003KT 050V120 CAVOK 15/09 Q1024

TAF EDDS 101100Z 1012/1112 08012G22KT CAVOK
  BECMG 1016/1018 06005KT